Time;durP1;ratioP1;P1;durP2;ratioP2;P2;SDS_P1;SDS_P2;PMS_P1;PMS_P2;Temp;Humidity;BMP_temperature;BMP_pressure;BME280_temperature;BME280_humidity;BME280_pressure;Samples;Min_cycle;Max_cycle;Signal;HPM_P1;HPM_P2
2022/10/15 00:01:38;;;;;;;18.95;12.10;;;13.40;99.90;;;;;;5004280;28;20072;-81
2022/10/15 00:04:04;;;;;;;18.90;12.70;;;13.50;99.90;;;;;;4996240;28;20038;-81
2022/10/15 00:06:30;;;;;;;19.70;12.48;;;13.40;99.90;;;;;;5021799;28;20046;-81
2022/10/15 00:08:56;;;;;;;19.55;13.60;;;13.40;99.90;;;;;;5030414;28;20430;-81
2022/10/15 00:11:25;;;;;;;24.58;15.02;;;13.50;99.90;;;;;;4994753;28;20107;-81
2022/10/15 00:13:53;;;;;;;26.85;18.40;;;13.50;99.90;;;;;;4997530;28;21909;-81
2022/10/15 00:16:22;;;;;;;24.45;17.13;;;13.40;99.90;;;;;;5014259;28;20462;-81
2022/10/15 00:18:48;;;;;;;27.52;18.05;;;13.40;99.90;;;;;;5020541;28;20119;-81
2022/10/15 00:21:16;;;;;;;26.10;18.83;;;13.40;99.90;;;;;;4996217;28;20100;-81
2022/10/15 00:23:43;;;;;;;30.95;19.48;;;13.40;99.90;;;;;;5029761;28;20049;-81
2022/10/15 00:26:14;;;;;;;31.58;21.75;;;13.40;99.90;;;;;;5013879;28;20053;-81
2022/10/15 00:28:41;;;;;;;32.00;21.95;;;13.40;99.90;;;;;;5019306;28;20049;-81
2022/10/15 00:31:09;;;;;;;27.92;20.90;;;13.30;99.90;;;;;;4981643;28;20052;-81
2022/10/15 00:33:35;;;;;;;35.65;24.00;;;13.30;99.90;;;;;;4996985;28;20045;-81
2022/10/15 00:36:07;;;;;;;36.92;22.77;;;13.30;99.90;;;;;;5020878;28;20042;-80
2022/10/15 00:38:34;;;;;;;30.98;20.33;;;13.30;99.90;;;;;;5003676;28;20079;-80
2022/10/15 00:41:00;;;;;;;31.13;21.30;;;13.30;99.90;;;;;;5012353;28;20065;-80
2022/10/15 00:43:39;;;;;;;32.92;21.98;;;13.20;99.90;;;;;;5019956;28;20543;-81
2022/10/15 00:46:11;;;;;;;27.65;20.55;;;13.30;99.90;;;;;;4993749;28;20128;-81
2022/10/15 00:48:37;;;;;;;36.35;22.13;;;13.30;99.90;;;;;;4988598;28;20053;-81
2022/10/15 00:51:04;;;;;;;33.55;21.92;;;13.30;99.90;;;;;;4980629;28;20060;-80
2022/10/15 00:53:30;;;;;;;33.90;23.73;;;13.20;99.90;;;;;;5011203;28;20458;-80
2022/10/15 00:55:56;;;;;;;31.75;20.70;;;13.20;99.90;;;;;;4995578;28;20053;-81
2022/10/15 00:58:29;;;;;;;35.55;23.65;;;13.20;99.90;;;;;;4994860;28;20052;-81
2022/10/15 01:00:55;;;;;;;31.42;20.35;;;13.20;99.90;;;;;;5014380;28;20108;-81
2022/10/15 01:03:21;;;;;;;36.55;23.02;;;13.20;99.90;;;;;;5018716;28;20404;-81
2022/10/15 01:05:49;;;;;;;32.60;21.65;;;13.20;99.90;;;;;;4999481;28;20128;-81
2022/10/15 01:08:15;;;;;;;29.65;19.90;;;13.20;99.90;;;;;;5003166;28;20116;-81
2022/10/15 01:10:49;;;;;;;30.48;20.60;;;13.20;99.90;;;;;;4999754;28;20132;-81
2022/10/15 01:13:26;;;;;;;26.85;19.23;;;13.20;99.90;;;;;;5016033;28;20046;-82
2022/10/15 01:16:04;;;;;;;27.08;19.52;;;13.20;99.90;;;;;;4996813;28;20063;-83
2022/10/15 01:18:50;;;;;;;29.58;19.38;;;12.40;99.90;;;;;;5012882;28;20048;-82
2022/10/15 01:21:23;;;;;;;30.23;17.77;;;13.20;99.90;;;;;;5012484;28;20050;-81
2022/10/15 01:24:24;;;;;;;28.10;17.65;;;13.20;99.90;;;;;;5030295;28;20053;-82
2022/10/15 01:27:17;;;;;;;20.30;14.70;;;13.20;99.90;;;;;;5019560;28;20054;-80
2022/10/15 01:30:09;;;;;;;18.33;11.77;;;13.20;99.90;;;;;;4999989;28;20096;-81
2022/10/15 01:33:00;;;;;;;13.43;9.07;;;13.20;99.90;;;;;;5013247;28;20061;-81
2022/10/15 01:35:37;;;;;;;11.90;8.32;;;13.20;99.90;;;;;;5004895;28;20045;-81
2022/10/15 01:38:12;;;;;;;8.45;7.18;;;13.20;99.90;;;;;;5020102;28;20057;-81
2022/10/15 01:40:45;;;;;;;7.25;6.00;;;13.20;99.90;;;;;;5012650;28;20326;-81
2022/10/15 01:43:16;;;;;;;10.00;6.45;;;13.20;99.90;;;;;;5002071;28;20041;-81
2022/10/15 01:45:57;;;;;;;8.10;6.05;;;13.20;99.90;;;;;;5015306;28;20192;-81
2022/10/15 01:48:26;;;;;;;9.30;5.88;;;13.20;99.90;;;;;;5014062;28;20052;-81
2022/10/15 01:50:56;;;;;;;7.05;5.85;;;13.20;99.90;;;;;;5018952;28;20044;-81
2022/10/15 01:53:25;;;;;;;7.82;5.95;;;13.20;99.90;;;;;;4994812;28;20356;-82
2022/10/15 01:55:58;;;;;;;9.23;7.20;;;13.20;99.90;;;;;;5001865;28;20050;-82
2022/10/15 01:58:25;;;;;;;8.57;6.68;;;13.20;99.90;;;;;;5015996;28;20057;-81
2022/10/15 02:00:53;;;;;;;8.77;6.55;;;13.20;99.90;;;;;;5016471;28;20049;-81
2022/10/15 02:03:19;;;;;;;8.80;7.13;;;13.20;99.90;;;;;;5014394;28;20044;-81
2022/10/15 02:05:57;;;;;;;8.90;7.03;;;13.20;99.90;;;;;;4983911;28;20395;-82
2022/10/15 02:08:25;;;;;;;10.55;7.95;;;13.30;99.90;;;;;;5022409;28;20390;-81
2022/10/15 02:11:07;;;;;;;9.77;8.75;;;13.30;99.90;;;;;;5004923;28;20060;-81
2022/10/15 02:14:02;;;;;;;11.77;9.82;;;13.30;99.90;;;;;;5003241;28;20079;-81
2022/10/15 02:16:37;;;;;;;15.55;12.35;;;13.30;99.90;;;;;;5006790;28;20052;-81
2022/10/15 02:19:16;;;;;;;18.05;14.18;;;13.30;99.90;;;;;;5022914;28;20050;-81
2022/10/15 02:22:15;;;;;;;19.63;16.77;;;13.30;99.90;;;;;;5017989;28;20050;-81
2022/10/15 02:24:52;;;;;;;23.90;18.77;;;13.30;99.90;;;;;;4998961;28;20066;-81
2022/10/15 02:27:20;;;;;;;29.83;21.15;;;13.30;99.90;;;;;;5016591;28;20049;-82
2022/10/15 02:29:49;;;;;;;24.20;18.58;;;13.30;99.90;;;;;;5006408;28;20056;-81
2022/10/15 02:32:16;;;;;;;33.08;24.70;;;13.30;99.90;;;;;;5022412;28;20068;-81
2022/10/15 02:34:44;;;;;;;32.10;23.65;;;13.20;99.90;;;;;;4996939;28;20744;-81
2022/10/15 02:37:11;;;;;;;32.30;24.40;;;13.30;99.90;;;;;;5032489;28;20046;-81
2022/10/15 02:39:36;;;;;;;33.45;24.00;;;13.30;99.90;;;;;;5004354;28;20045;-81
2022/10/15 02:42:03;;;;;;;36.53;24.45;;;13.30;99.90;;;;;;5001525;28;20041;-81
2022/10/15 02:44:28;;;;;;;33.03;22.38;;;13.20;99.90;;;;;;5021252;28;20073;-81
2022/10/15 02:46:56;;;;;;;41.45;25.77;;;13.20;99.90;;;;;;5014928;28;20053;-82
2022/10/15 02:49:22;;;;;;;39.83;24.60;;;13.20;99.90;;;;;;5017071;28;20048;-81
2022/10/15 02:51:48;;;;;;;37.45;23.95;;;13.10;99.90;;;;;;5017006;28;20053;-80
2022/10/15 02:54:13;;;;;;;36.55;23.42;;;13.20;99.90;;;;;;4996834;28;20041;-81
2022/10/15 02:56:39;;;;;;;37.13;22.92;;;13.20;99.90;;;;;;5013474;28;20529;-81
2022/10/15 02:59:05;;;;;;;35.53;21.52;;;13.20;99.90;;;;;;5001792;28;20042;-81
2022/10/15 03:01:31;;;;;;;36.28;22.92;;;13.20;99.90;;;;;;4985081;28;20045;-81
2022/10/15 03:03:58;;;;;;;37.03;23.30;;;13.20;99.90;;;;;;4997172;28;20479;-81
2022/10/15 03:06:24;;;;;;;42.95;24.83;;;13.20;99.90;;;;;;4982639;28;20080;-80
2022/10/15 03:08:50;;;;;;;33.97;21.50;;;13.20;99.90;;;;;;5006588;28;20042;-81
2022/10/15 03:11:15;;;;;;;35.30;22.45;;;13.20;99.90;;;;;;5000166;28;20045;-81
2022/10/15 03:13:41;;;;;;;35.67;22.65;;;13.20;99.90;;;;;;5021059;28;20050;-80
2022/10/15 03:16:09;;;;;;;36.42;23.58;;;13.20;99.90;;;;;;5015436;28;20034;-81
2022/10/15 03:18:35;;;;;;;35.75;22.55;;;13.20;99.90;;;;;;5021338;28;20041;-81
2022/10/15 03:21:01;;;;;;;42.83;24.73;;;13.20;99.90;;;;;;5000038;28;20041;-80
2022/10/15 03:23:27;;;;;;;36.72;23.65;;;13.20;99.90;;;;;;5004493;28;20128;-81
2022/10/15 03:25:53;;;;;;;40.63;24.33;;;13.20;99.90;;;;;;5005107;28;20053;-80
2022/10/15 03:28:19;;;;;;;38.78;24.38;;;13.20;99.90;;;;;;5015901;28;20103;-81
2022/10/15 03:30:45;;;;;;;44.60;25.73;;;13.20;99.90;;;;;;4999064;28;20111;-81
2022/10/15 03:33:11;;;;;;;41.70;25.60;;;13.10;99.90;;;;;;4999305;28;20054;-80
2022/10/15 03:35:37;;;;;;;43.22;24.92;;;13.10;99.90;;;;;;5014859;28;20064;-81
2022/10/15 03:38:03;;;;;;;43.95;25.90;;;13.10;99.90;;;;;;5015386;28;20046;-81
2022/10/15 03:40:29;;;;;;;46.42;27.05;;;13.10;99.90;;;;;;4994250;28;20034;-81
2022/10/15 03:42:55;;;;;;;44.83;26.35;;;13.10;99.90;;;;;;4998577;28;20544;-81
2022/10/15 03:45:22;;;;;;;40.60;25.27;;;13.10;99.90;;;;;;4981465;28;20087;-81
2022/10/15 03:47:48;;;;;;;48.22;27.00;;;13.10;99.90;;;;;;5015160;28;20464;-81
2022/10/15 03:50:14;;;;;;;41.85;25.13;;;13.00;99.90;;;;;;5013671;28;20101;-81
2022/10/15 03:52:40;;;;;;;41.58;25.20;;;13.00;99.90;;;;;;4983273;28;20124;-81
2022/10/15 03:55:06;;;;;;;44.50;25.52;;;13.00;99.90;;;;;;4999523;28;20045;-80
2022/10/15 03:57:32;;;;;;;47.67;27.65;;;13.00;99.90;;;;;;5017813;28;20210;-81
2022/10/15 03:59:57;;;;;;;44.80;26.52;;;13.00;99.90;;;;;;4988426;28;20049;-81
2022/10/15 04:02:23;;;;;;;45.10;26.25;;;13.00;99.90;;;;;;5020712;28;20056;-81
2022/10/15 04:04:53;;;;;;;44.28;26.83;;;13.00;99.90;;;;;;5013254;28;20397;-80
2022/10/15 04:07:20;;;;;;;46.17;28.65;;;13.00;99.90;;;;;;5015222;28;20041;-80
2022/10/15 04:09:46;;;;;;;43.65;26.55;;;12.90;99.90;;;;;;4982572;28;20426;-81
2022/10/15 04:12:12;;;;;;;42.63;23.77;;;12.90;99.90;;;;;;4995460;28;20045;-81
2022/10/15 04:14:39;;;;;;;46.30;27.38;;;12.90;99.90;;;;;;4994584;28;20128;-81
2022/10/15 04:17:04;;;;;;;46.38;27.08;;;12.90;99.90;;;;;;4979789;28;20044;-81
2022/10/15 04:19:30;;;;;;;40.65;26.60;;;13.10;99.90;;;;;;5014301;28;20041;-81
2022/10/15 04:21:56;;;;;;;41.63;26.20;;;12.80;99.90;;;;;;5013854;28;20046;-81
2022/10/15 04:24:22;;;;;;;41.67;26.08;;;12.80;99.90;;;;;;5013742;28;20398;-81
2022/10/15 04:26:48;;;;;;;44.20;26.23;;;12.80;99.90;;;;;;5000161;28;20049;-81
2022/10/15 04:29:13;;;;;;;39.67;24.67;;;12.70;99.90;;;;;;4999576;28;20065;-81
2022/10/15 04:31:40;;;;;;;48.03;27.13;;;12.70;99.90;;;;;;5017241;28;20058;-81
2022/10/15 04:34:06;;;;;;;48.88;28.45;;;12.70;99.90;;;;;;4986203;28;20045;-80
2022/10/15 04:36:32;;;;;;;43.85;25.83;;;12.60;99.90;;;;;;5000961;28;20041;-81
2022/10/15 04:38:58;;;;;;;40.20;25.73;;;12.60;99.90;;;;;;5019924;28;20058;-79
2022/10/15 04:41:24;;;;;;;37.95;25.48;;;12.60;99.90;;;;;;5029999;28;20111;-78
2022/10/15 04:43:50;;;;;;;37.42;25.15;;;12.50;99.90;;;;;;5003311;28;20121;-79
2022/10/15 04:46:16;;;;;;;40.97;25.77;;;12.50;99.90;;;;;;5015818;28;20052;-81
2022/10/15 04:48:41;;;;;;;42.92;27.27;;;12.50;99.90;;;;;;5000519;28;20103;-81
2022/10/15 04:51:13;;;;;;;41.78;27.08;;;12.50;99.90;;;;;;5003253;28;20114;-86
2022/10/15 04:53:39;;;;;;;42.65;26.70;;;12.40;99.90;;;;;;5000853;28;20128;-81
2022/10/15 04:56:12;;;;;;;40.08;25.73;;;12.40;99.90;;;;;;4999376;28;20147;-82
2022/10/15 04:58:38;;;;;;;38.40;24.80;;;12.40;99.90;;;;;;4999088;28;20066;-82
2022/10/15 05:01:07;;;;;;;42.35;26.20;;;12.30;99.90;;;;;;4994161;28;20045;-82
2022/10/15 05:03:33;;;;;;;41.28;26.83;;;12.30;99.90;;;;;;5019602;28;20414;-81
2022/10/15 05:06:08;;;;;;;38.80;25.95;;;12.30;99.90;;;;;;4998075;28;20045;-81
2022/10/15 05:08:35;;;;;;;38.58;24.92;;;12.20;99.90;;;;;;5019421;28;20041;-82
2022/10/15 05:11:03;;;;;;;42.33;26.35;;;12.20;99.90;;;;;;4980633;28;20439;-81
2022/10/15 05:13:30;;;;;;;40.25;26.35;;;12.20;99.90;;;;;;5014665;28;20052;-81
2022/10/15 05:15:55;;;;;;;36.90;25.13;;;12.10;99.90;;;;;;4980231;28;20053;-81
2022/10/15 05:18:21;;;;;;;35.47;22.77;;;12.10;99.90;;;;;;4987195;28;20049;-82
2022/10/15 05:20:47;;;;;;;39.33;24.30;;;12.10;99.90;;;;;;4999547;28;20172;-82
2022/10/15 05:23:13;;;;;;;41.88;25.90;;;12.00;99.90;;;;;;5002176;28;20047;-82
2022/10/15 05:25:39;;;;;;;40.13;25.92;;;12.00;99.90;;;;;;4998617;28;20049;-82
2022/10/15 05:28:04;;;;;;;41.92;25.75;;;12.00;99.90;;;;;;4994824;28;20132;-85
2022/10/15 05:30:31;;;;;;;44.88;27.08;;;12.00;99.90;;;;;;4994354;28;20159;-81
2022/10/15 05:32:57;;;;;;;45.38;27.27;;;12.10;99.90;;;;;;4969295;28;20084;-81
2022/10/15 05:35:23;;;;;;;44.83;27.02;;;12.10;99.90;;;;;;4997068;28;20132;-81
2022/10/15 05:37:49;;;;;;;44.78;27.00;;;12.10;99.90;;;;;;5002148;28;20088;-81
2022/10/15 05:40:15;;;;;;;42.20;26.15;;;12.10;99.90;;;;;;5018719;28;20050;-82
2022/10/15 05:42:40;;;;;;;43.67;26.48;;;12.20;99.90;;;;;;4997902;28;20057;-83
2022/10/15 05:45:07;;;;;;;42.72;25.45;;;12.20;99.90;;;;;;5015592;28;20052;-81
2022/10/15 05:47:32;;;;;;;39.33;24.75;;;12.20;99.90;;;;;;4990376;28;20060;-81
2022/10/15 05:49:58;;;;;;;43.20;24.88;;;12.20;99.90;;;;;;5018071;28;20046;-81
2022/10/15 05:52:24;;;;;;;51.25;28.45;;;12.30;99.90;;;;;;5007393;28;20037;-81
2022/10/15 05:54:50;;;;;;;48.55;27.92;;;12.30;99.90;;;;;;5001027;28;20057;-80
2022/10/15 05:57:15;;;;;;;52.03;30.65;;;11.70;99.90;;;;;;5037806;28;20556;-80
2022/10/15 05:59:41;;;;;;;52.70;31.38;;;12.30;99.90;;;;;;5001461;28;20161;-80
2022/10/15 06:02:09;;;;;;;48.70;29.02;;;12.40;99.90;;;;;;4999434;28;20037;-81
2022/10/15 06:04:35;;;;;;;57.60;33.25;;;12.40;99.90;;;;;;5016290;28;20433;-81
2022/10/15 06:07:00;;;;;;;55.22;31.75;;;12.40;99.90;;;;;;4994863;28;20210;-81
2022/10/15 06:09:27;;;;;;;54.08;31.52;;;12.50;99.90;;;;;;5001415;28;20435;-82
2022/10/15 06:11:52;;;;;;;56.70;31.60;;;12.50;99.90;;;;;;4977930;28;20057;-81
2022/10/15 06:14:18;;;;;;;59.67;32.03;;;12.50;99.90;;;;;;4978092;28;20111;-81
2022/10/15 06:16:44;;;;;;;52.88;32.35;;;12.60;99.90;;;;;;5017886;28;20081;-82
2022/10/15 06:19:10;;;;;;;55.45;32.45;;;12.60;99.90;;;;;;4988771;28;20061;-82
2022/10/15 06:21:36;;;;;;;57.83;33.63;;;12.60;99.90;;;;;;5004994;28;20150;-82
2022/10/15 06:24:02;;;;;;;58.33;32.70;;;12.60;99.90;;;;;;5004787;28;20201;-82
2022/10/15 06:26:27;;;;;;;56.35;32.90;;;12.70;99.90;;;;;;5004535;28;20107;-81
2022/10/15 06:28:54;;;;;;;58.17;32.92;;;12.70;99.90;;;;;;5004879;28;20403;-82
2022/10/15 06:31:19;;;;;;;57.55;34.13;;;12.70;99.90;;;;;;4988427;28;20395;-81
2022/10/15 06:33:45;;;;;;;56.42;35.15;;;12.60;99.90;;;;;;4987117;28;20053;-82
2022/10/15 06:36:12;;;;;;;63.08;34.72;;;12.60;99.90;;;;;;5003865;28;20041;-82
2022/10/15 06:38:38;;;;;;;60.40;34.60;;;12.60;99.90;;;;;;5018558;28;20049;-81
2022/10/15 06:41:05;;;;;;;55.17;34.08;;;12.60;99.90;;;;;;5010290;28;20053;-81
2022/10/15 06:43:31;;;;;;;55.83;35.05;;;12.60;99.90;;;;;;5019601;28;20407;-82
2022/10/15 06:45:59;;;;;;;52.78;34.30;;;12.60;99.90;;;;;;5002452;28;20057;-81
2022/10/15 06:48:24;;;;;;;51.15;33.78;;;12.60;99.90;;;;;;5010629;28;20057;-82
2022/10/15 06:50:50;;;;;;;62.58;36.80;;;12.60;99.90;;;;;;5017919;28;20403;-81
2022/10/15 06:53:16;;;;;;;54.42;35.03;;;12.60;99.90;;;;;;5018687;28;20475;-82
2022/10/15 06:55:42;;;;;;;62.53;35.38;;;12.60;99.90;;;;;;5018101;28;20057;-81
2022/10/15 06:58:08;;;;;;;60.92;35.20;;;12.60;99.90;;;;;;4971628;28;20050;-82
2022/10/15 07:00:34;;;;;;;60.70;36.28;;;12.70;99.90;;;;;;4987990;28;20045;-81
2022/10/15 07:03:04;;;;;;;59.03;37.35;;;12.70;99.90;;;;;;5026888;28;20048;-82
2022/10/15 07:05:31;;;;;;;59.78;37.03;;;12.80;99.90;;;;;;5004011;28;20377;-81
2022/10/15 07:07:57;;;;;;;61.70;37.05;;;12.80;99.90;;;;;;5019627;28;20456;-81
2022/10/15 07:10:26;;;;;;;61.35;36.92;;;12.80;99.90;;;;;;5020635;28;20083;-82
2022/10/15 07:12:53;;;;;;;63.50;38.05;;;12.80;99.90;;;;;;5002676;28;20123;-81
2022/10/15 07:15:20;;;;;;;65.32;37.92;;;12.80;99.90;;;;;;5003498;28;20046;-82
2022/10/15 07:17:50;;;;;;;57.65;35.80;;;12.90;99.90;;;;;;5042785;28;20049;-82
2022/10/15 07:20:17;;;;;;;60.95;37.83;;;12.90;99.90;;;;;;5035472;28;20117;-82
2022/10/15 07:22:43;;;;;;;63.55;37.38;;;12.90;99.90;;;;;;4994564;28;20394;-81
2022/10/15 07:25:09;;;;;;;62.30;36.42;;;12.90;99.90;;;;;;5002979;28;20038;-82
2022/10/15 07:27:35;;;;;;;58.95;36.05;;;13.00;99.90;;;;;;5019552;28;20133;-81
2022/10/15 07:30:01;;;;;;;69.15;37.47;;;13.00;99.90;;;;;;5003711;28;20057;-82
2022/10/15 07:32:27;;;;;;;68.93;37.65;;;13.00;99.90;;;;;;4986574;28;20065;-82
2022/10/15 07:34:52;;;;;;;64.93;34.05;;;13.10;99.90;;;;;;5018928;28;20061;-81
2022/10/15 07:37:18;;;;;;;60.40;31.67;;;13.10;99.90;;;;;;5003641;28;20114;-82
2022/10/15 07:39:44;;;;;;;70.00;33.20;;;13.10;99.90;;;;;;5026947;28;20526;-81
2022/10/15 07:42:09;;;;;;;69.32;34.47;;;13.10;99.90;;;;;;5002662;28;20041;-82
2022/10/15 07:44:35;;;;;;;64.03;32.42;;;13.10;99.90;;;;;;5004482;28;20046;-81
2022/10/15 07:47:01;;;;;;;58.90;31.50;;;13.20;99.90;;;;;;5002386;28;20073;-82
2022/10/15 07:49:26;;;;;;;60.78;32.15;;;13.20;99.90;;;;;;5003739;28;20136;-81
2022/10/15 07:51:52;;;;;;;58.72;31.20;;;13.20;99.90;;;;;;5010269;28;20061;-81
2022/10/15 07:54:18;;;;;;;59.83;30.23;;;13.20;99.90;;;;;;5002073;28;20046;-81
2022/10/15 07:56:44;;;;;;;66.20;32.55;;;13.20;99.90;;;;;;5002524;28;20091;-82
2022/10/15 07:59:09;;;;;;;63.85;30.02;;;13.20;99.90;;;;;;5018596;28;20056;-82
2022/10/15 08:01:35;;;;;;;58.00;28.67;;;13.20;99.90;;;;;;4994448;28;20372;-81
2022/10/15 08:04:01;;;;;;;59.83;28.80;;;13.20;99.90;;;;;;5006434;28;20041;-82
2022/10/15 08:06:26;;;;;;;60.70;27.77;;;13.20;99.90;;;;;;5009402;28;20171;-81
2022/10/15 08:08:52;;;;;;;59.33;27.95;;;13.30;99.90;;;;;;5002141;28;20057;-82
2022/10/15 08:11:18;;;;;;;55.38;26.30;;;13.30;99.90;;;;;;5019179;28;20186;-82
2022/10/15 08:13:45;;;;;;;56.15;26.90;;;13.30;99.90;;;;;;5018433;28;20061;-81
2022/10/15 08:16:13;;;;;;;55.78;27.42;;;13.30;99.90;;;;;;5001621;28;20046;-82
2022/10/15 08:18:40;;;;;;;58.45;28.30;;;13.40;99.90;;;;;;5001075;28;20050;-82
2022/10/15 08:21:07;;;;;;;59.92;29.17;;;13.30;99.90;;;;;;4985123;28;20050;-81
2022/10/15 08:23:33;;;;;;;56.25;29.33;;;13.40;99.90;;;;;;5000636;28;20049;-81
2022/10/15 08:25:59;;;;;;;59.75;32.03;;;13.40;99.90;;;;;;5001369;28;20060;-81
2022/10/15 08:28:30;;;;;;;61.00;33.35;;;13.40;99.90;;;;;;5019182;28;20497;-81
2022/10/15 08:31:00;;;;;;;67.03;36.20;;;13.40;99.90;;;;;;5017875;28;20534;-81
2022/10/15 08:33:27;;;;;;;63.25;33.88;;;13.40;99.90;;;;;;4985459;28;20573;-81
2022/10/15 08:35:53;;;;;;;63.33;34.55;;;13.40;99.90;;;;;;5018119;28;20175;-82
2022/10/15 08:38:18;;;;;;;61.92;34.30;;;13.40;99.90;;;;;;4986552;28;20158;-82
2022/10/15 08:40:53;;;;;;;52.42;30.08;;;13.40;99.90;;;;;;5019643;28;20049;-81
2022/10/15 08:43:33;;;;;;;50.33;29.77;;;13.40;99.90;;;;;;5002008;28;20046;-81
2022/10/15 08:46:02;;;;;;;49.35;29.13;;;13.40;99.90;;;;;;5008489;28;20786;-81
2022/10/15 08:48:35;;;;;;;50.72;29.77;;;13.50;99.90;;;;;;5018004;28;20068;-81
2022/10/15 08:51:08;;;;;;;47.85;30.02;;;13.40;99.90;;;;;;5017528;28;20053;-81
2022/10/15 08:53:40;;;;;;;51.15;30.50;;;13.50;99.90;;;;;;5019590;28;20049;-81
2022/10/15 08:56:20;;;;;;;49.65;29.55;;;13.50;99.90;;;;;;5018606;28;20054;-82
2022/10/15 08:59:00;;;;;;;50.45;30.17;;;13.60;99.90;;;;;;5026070;28;20050;-81
2022/10/15 09:01:47;;;;;;;49.33;29.10;;;13.60;99.90;;;;;;5040654;28;20132;-81
2022/10/15 09:04:31;;;;;;;46.03;28.80;;;13.60;99.90;;;;;;5000652;28;20034;-81
2022/10/15 09:07:08;;;;;;;47.85;30.23;;;13.70;99.90;;;;;;5008863;28;20882;-81
2022/10/15 09:09:54;;;;;;;47.60;29.35;;;13.60;99.90;;;;;;5018710;28;20535;-82
2022/10/15 09:12:41;;;;;;;46.22;26.90;;;13.70;99.90;;;;;;5004670;28;20052;-81
2022/10/15 09:15:15;;;;;;;43.47;26.23;;;13.70;99.90;;;;;;5022443;28;20449;-81
2022/10/15 09:17:44;;;;;;;40.60;24.92;;;13.70;99.90;;;;;;5022220;28;20057;-81
2022/10/15 09:20:19;;;;;;;43.85;25.08;;;13.70;99.90;;;;;;5028639;28;20111;-81
2022/10/15 09:22:49;;;;;;;41.30;23.97;;;13.70;99.90;;;;;;5029119;28;20099;-81
2022/10/15 09:25:20;;;;;;;39.97;23.42;;;13.70;99.90;;;;;;5022050;28;20299;-82
2022/10/15 09:27:48;;;;;;;39.47;24.05;;;13.70;99.90;;;;;;5013697;28;20060;-81
2022/10/15 09:30:24;;;;;;;38.47;23.30;;;13.70;99.90;;;;;;5028696;28;20046;-81
2022/10/15 09:33:14;;;;;;;40.28;23.23;;;13.70;99.90;;;;;;5029135;28;20049;-82
2022/10/15 09:35:51;;;;;;;37.22;23.17;;;13.80;99.90;;;;;;5005133;28;20061;-81
2022/10/15 09:38:35;;;;;;;37.35;23.63;;;13.80;99.90;;;;;;5011683;28;20141;-82
2022/10/15 09:41:19;;;;;;;35.95;22.38;;;13.80;99.90;;;;;;5037690;28;20099;-81
2022/10/15 09:43:51;;;;;;;37.58;24.13;;;13.80;99.90;;;;;;5004083;28;20566;-81
2022/10/15 09:46:16;;;;;;;39.65;24.15;;;13.90;99.90;;;;;;5029043;28;20052;-82
2022/10/15 09:49:10;;;;;;;37.38;23.05;;;13.90;99.90;;;;;;5020796;28;20050;-81
2022/10/15 09:51:44;;;;;;;39.28;23.65;;;13.90;99.90;;;;;;5029197;28;20677;-81
2022/10/15 09:54:30;;;;;;;38.05;22.10;;;13.90;99.90;;;;;;5027782;28;20114;-81
2022/10/15 09:56:56;;;;;;;35.53;22.13;;;14.00;99.90;;;;;;5005260;28;20053;-82
2022/10/15 09:59:24;;;;;;;39.55;21.13;;;14.00;99.90;;;;;;5004621;28;20492;-81
2022/10/15 10:01:59;;;;;;;39.38;21.63;;;14.00;99.90;;;;;;4988726;28;20148;-81
2022/10/15 10:04:35;;;;;;;36.95;21.23;;;14.10;99.90;;;;;;5028737;28;20052;-81
2022/10/15 10:07:07;;;;;;;39.00;19.73;;;14.20;99.90;;;;;;5012330;28;20057;-81
2022/10/15 10:09:47;;;;;;;36.33;21.38;;;14.30;99.90;;;;;;5020808;28;20107;-81
2022/10/15 10:12:28;;;;;;;38.03;20.67;;;14.30;99.90;;;;;;5028300;28;20523;-81
2022/10/15 10:15:20;;;;;;;36.50;20.05;;;14.30;99.90;;;;;;5021072;28;20049;-81
2022/10/15 10:17:52;;;;;;;39.17;21.42;;;14.30;99.90;;;;;;5010144;28;20119;-81
2022/10/15 10:20:20;;;;;;;37.17;19.02;;;14.30;99.90;;;;;;5003029;28;20058;-81
2022/10/15 10:22:54;;;;;;;38.10;19.05;;;14.30;99.90;;;;;;5028190;28;20077;-82
2022/10/15 10:25:28;;;;;;;37.33;19.88;;;14.30;99.90;;;;;;5012003;28;20153;-82
2022/10/15 10:27:57;;;;;;;35.90;20.13;;;14.30;99.90;;;;;;5028387;28;20120;-81
2022/10/15 10:30:23;;;;;;;38.40;19.77;;;14.40;99.90;;;;;;5020914;28;20132;-82
2022/10/15 10:32:57;;;;;;;34.47;19.35;;;14.40;99.90;;;;;;5011171;28;20058;-82
2022/10/15 10:35:25;;;;;;;37.63;19.08;;;14.50;99.90;;;;;;5010003;28;20061;-82
2022/10/15 10:37:52;;;;;;;35.10;19.58;;;14.50;99.90;;;;;;5044904;28;20049;-82
2022/10/15 10:40:33;;;;;;;39.72;19.90;;;14.50;99.90;;;;;;5019860;28;20129;-82
2022/10/15 10:43:23;;;;;;;29.48;17.15;;;14.50;99.90;;;;;;5020090;28;20077;-82
2022/10/15 10:46:15;;;;;;;31.15;18.63;;;14.60;99.90;;;;;;5011948;28;20132;-82
2022/10/15 10:48:44;;;;;;;28.83;17.83;;;14.80;99.90;;;;;;5027528;28;20053;-82
2022/10/15 10:51:22;;;;;;;24.73;16.00;;;14.90;99.90;;;;;;5011501;28;20057;-81
2022/10/15 10:53:55;;;;;;;23.42;14.45;;;15.00;99.90;;;;;;5028183;28;20144;-81
2022/10/15 10:56:38;;;;;;;23.27;14.27;;;15.20;99.90;;;;;;5020832;28;20045;-81
2022/10/15 10:59:15;;;;;;;22.70;14.63;;;15.60;99.90;;;;;;5003803;28;20081;-81
2022/10/15 11:01:41;;;;;;;21.20;13.77;;;15.90;99.90;;;;;;5003576;28;20114;-81
2022/10/15 11:04:12;;;;;;;22.15;14.65;;;16.30;99.90;;;;;;4986532;28;20038;-82
2022/10/15 11:06:49;;;;;;;21.45;13.70;;;16.70;99.90;;;;;;5027902;28;20076;-82
2022/10/15 11:09:36;;;;;;;17.58;13.27;;;17.00;99.90;;;;;;5026704;28;20046;-82
2022/10/15 11:12:12;;;;;;;19.88;13.88;;;17.20;99.90;;;;;;5002487;28;20049;-82
2022/10/15 11:14:45;;;;;;;17.42;12.77;;;17.70;99.90;;;;;;5009972;28;20046;-82
2022/10/15 11:17:33;;;;;;;16.83;12.70;;;18.00;99.90;;;;;;5036145;28;20045;-81
2022/10/15 11:20:23;;;;;;;17.95;13.05;;;17.80;99.90;;;;;;5003903;28;20089;-82
2022/10/15 11:23:13;;;;;;;16.55;12.77;;;17.70;99.90;;;;;;5018552;28;20133;-82
2022/10/15 11:26:02;;;;;;;15.38;12.20;;;17.70;99.90;;;;;;5011439;28;20495;-82
2022/10/15 11:28:58;;;;;;;15.30;11.68;;;17.50;99.90;;;;;;5025257;28;20089;-81
2022/10/15 11:31:29;;;;;;;15.40;11.75;;;17.40;99.90;;;;;;5027223;28;20116;-82
2022/10/15 11:34:17;;;;;;;15.48;11.65;;;17.20;99.90;;;;;;5000730;28;20054;-82
2022/10/15 11:37:01;;;;;;;13.32;11.30;;;17.10;99.90;;;;;;5011006;28;20064;-82
2022/10/15 11:39:30;;;;;;;13.60;11.25;;;17.00;99.90;;;;;;5010128;28;20144;-82
2022/10/15 11:42:20;;;;;;;13.15;10.80;;;17.00;99.90;;;;;;5009826;28;20049;-82
2022/10/15 11:44:58;;;;;;;11.98;10.07;;;17.00;99.90;;;;;;5002665;28;20056;-82
2022/10/15 11:47:49;;;;;;;12.48;10.13;;;17.00;99.90;;;;;;5002052;28;20141;-82
2022/10/15 11:50:24;;;;;;;13.18;10.52;;;17.00;99.90;;;;;;5034806;28;20050;-82
2022/10/15 11:53:26;;;;;;;13.07;10.30;;;17.10;99.90;;;;;;5002173;28;20053;-82
2022/10/15 11:56:05;;;;;;;12.05;10.10;;;17.00;99.90;;;;;;5018655;28;20461;-82
2022/10/15 11:58:57;;;;;;;9.90;8.73;;;16.90;99.90;;;;;;5035881;28;20127;-83
2022/10/15 12:01:36;;;;;;;10.07;8.82;;;16.90;99.90;;;;;;5025358;28;20111;-82
2022/10/15 12:04:10;;;;;;;10.05;8.23;;;16.80;99.90;;;;;;5002026;28;20041;-82
2022/10/15 12:06:42;;;;;;;10.77;8.98;;;16.80;99.90;;;;;;5018652;28;20376;-82
2022/10/15 12:09:15;;;;;;;11.52;8.38;;;16.80;99.90;;;;;;5002364;28;20526;-83
2022/10/15 12:12:04;;;;;;;11.55;8.40;;;16.80;99.90;;;;;;5002224;28;20050;-82
2022/10/15 12:15:17;;;;;;;9.15;7.63;;;16.80;99.90;;;;;;5042319;28;20553;-81
2022/10/15 12:18:23;;;;;;;8.70;6.80;;;16.70;99.90;;;;;;5000407;28;20052;-82
2022/10/15 12:20:49;;;;;;;7.97;7.05;;;16.70;99.90;;;;;;4995616;28;20496;-82
2022/10/15 12:23:35;;;;;;;10.75;7.40;;;16.80;99.90;;;;;;5017445;28;20407;-82
2022/10/15 12:26:01;;;;;;;9.07;7.60;;;16.80;99.90;;;;;;5019234;28;20440;-82
2022/10/15 12:28:30;;;;;;;7.63;6.82;;;17.00;99.90;;;;;;5018415;28;20053;-82
2022/10/15 12:31:01;;;;;;;8.70;7.57;;;17.10;99.90;;;;;;5018661;28;20060;-82
2022/10/15 12:33:43;;;;;;;8.35;7.45;;;17.10;99.90;;;;;;5002185;28;20085;-82
2022/10/15 12:36:29;;;;;;;8.57;6.75;;;17.20;99.90;;;;;;4986788;28;20053;-81
2022/10/15 12:38:55;;;;;;;8.38;6.93;;;17.30;99.90;;;;;;4992247;28;20136;-81
2022/10/15 12:41:33;;;;;;;9.32;7.63;;;17.30;99.90;;;;;;5018180;28;20137;-81
2022/10/15 12:44:15;;;;;;;8.43;6.97;;;17.30;99.90;;;;;;5001155;28;20124;-81
2022/10/15 12:46:41;;;;;;;7.22;6.13;;;17.20;99.90;;;;;;5018132;28;20115;-81
2022/10/15 12:49:42;;;;;;;8.02;6.32;;;17.10;99.90;;;;;;4985738;28;20402;-81